sensor_id;sensor_type;location;lat;lon;timestamp;P1;durP1;ratioP1;P2;durP2;ratioP2
36423;SDS011;22458;45.328;9.514;2022-07-09T00:00:35;4.13;;;3.55;;
36423;SDS011;22458;45.328;9.514;2022-07-09T00:03:03;3.05;;;2.75;;
36423;SDS011;22458;45.328;9.514;2022-07-09T00:05:29;3.25;;;2.95;;
36423;SDS011;22458;45.328;9.514;2022-07-09T00:07:55;4.80;;;3.10;;
36423;SDS011;22458;45.328;9.514;2022-07-09T00:10:20;3.20;;;2.90;;
36423;SDS011;22458;45.328;9.514;2022-07-09T00:12:46;3.22;;;2.88;;
36423;SDS011;22458;45.328;9.514;2022-07-09T00:15:12;5.00;;;2.90;;
36423;SDS011;22458;45.328;9.514;2022-07-09T00:17:38;4.10;;;2.53;;
36423;SDS011;22458;45.328;9.514;2022-07-09T00:20:04;4.68;;;2.88;;
36423;SDS011;22458;45.328;9.514;2022-07-09T00:22:33;3.50;;;2.63;;
36423;SDS011;22458;45.328;9.514;2022-07-09T00:24:59;4.00;;;2.28;;
36423;SDS011;22458;45.328;9.514;2022-07-09T00:27:26;2.40;;;2.20;;
36423;SDS011;22458;45.328;9.514;2022-07-09T00:29:52;2.83;;;2.50;;
36423;SDS011;22458;45.328;9.514;2022-07-09T00:32:17;3.28;;;2.03;;
36423;SDS011;22458;45.328;9.514;2022-07-09T00:34:43;3.72;;;2.40;;
36423;SDS011;22458;45.328;9.514;2022-07-09T00:37:09;2.92;;;2.63;;
36423;SDS011;22458;45.328;9.514;2022-07-09T00:39:35;4.45;;;2.70;;
36423;SDS011;22458;45.328;9.514;2022-07-09T00:42:10;2.95;;;2.65;;
36423;SDS011;22458;45.328;9.514;2022-07-09T00:44:36;3.67;;;3.20;;
36423;SDS011;22458;45.328;9.514;2022-07-09T00:47:03;3.63;;;2.80;;
36423;SDS011;22458;45.328;9.514;2022-07-09T00:49:30;5.78;;;3.17;;
36423;SDS011;22458;45.328;9.514;2022-07-09T00:51:57;3.17;;;2.80;;
36423;SDS011;22458;45.328;9.514;2022-07-09T00:54:24;4.25;;;2.80;;
36423;SDS011;22458;45.328;9.514;2022-07-09T00:56:53;2.67;;;2.38;;
36423;SDS011;22458;45.328;9.514;2022-07-09T00:59:20;2.92;;;2.67;;
36423;SDS011;22458;45.328;9.514;2022-07-09T01:01:46;3.10;;;2.47;;
36423;SDS011;22458;45.328;9.514;2022-07-09T01:04:13;2.63;;;1.90;;
36423;SDS011;22458;45.328;9.514;2022-07-09T01:06:39;5.47;;;2.33;;
36423;SDS011;22458;45.328;9.514;2022-07-09T01:09:05;2.35;;;2.15;;
36423;SDS011;22458;45.328;9.514;2022-07-09T01:11:32;3.28;;;2.50;;
36423;SDS011;22458;45.328;9.514;2022-07-09T01:13:58;3.47;;;2.13;;
36423;SDS011;22458;45.328;9.514;2022-07-09T01:16:31;2.45;;;2.03;;
36423;SDS011;22458;45.328;9.514;2022-07-09T01:18:58;2.85;;;2.40;;
36423;SDS011;22458;45.328;9.514;2022-07-09T01:21:23;3.00;;;2.70;;
36423;SDS011;22458;45.328;9.514;2022-07-09T01:23:49;3.78;;;3.38;;
36423;SDS011;22458;45.328;9.514;2022-07-09T01:26:15;4.55;;;4.13;;
36423;SDS011;22458;45.328;9.514;2022-07-09T01:28:41;4.82;;;4.38;;
36423;SDS011;22458;45.328;9.514;2022-07-09T01:31:07;5.47;;;4.63;;
36423;SDS011;22458;45.328;9.514;2022-07-09T01:33:33;5.47;;;4.00;;
36423;SDS011;22458;45.328;9.514;2022-07-09T01:35:59;5.50;;;3.88;;
36423;SDS011;22458;45.328;9.514;2022-07-09T01:38:25;5.28;;;3.80;;
36423;SDS011;22458;45.328;9.514;2022-07-09T01:40:50;4.60;;;4.20;;
36423;SDS011;22458;45.328;9.514;2022-07-09T01:43:16;5.50;;;4.32;;
36423;SDS011;22458;45.328;9.514;2022-07-09T01:45:42;4.45;;;3.92;;
36423;SDS011;22458;45.328;9.514;2022-07-09T01:48:08;4.40;;;4.00;;
36423;SDS011;22458;45.328;9.514;2022-07-09T01:50:33;4.78;;;4.38;;
36423;SDS011;22458;45.328;9.514;2022-07-09T01:52:59;4.55;;;3.83;;
36423;SDS011;22458;45.328;9.514;2022-07-09T01:55:25;5.15;;;4.28;;
36423;SDS011;22458;45.328;9.514;2022-07-09T01:57:51;5.90;;;5.30;;
36423;SDS011;22458;45.328;9.514;2022-07-09T02:00:16;5.57;;;4.38;;
36423;SDS011;22458;45.328;9.514;2022-07-09T02:02:44;5.38;;;4.13;;
36423;SDS011;22458;45.328;9.514;2022-07-09T02:05:10;7.18;;;4.72;;
36423;SDS011;22458;45.328;9.514;2022-07-09T02:07:36;4.28;;;3.72;;
36423;SDS011;22458;45.328;9.514;2022-07-09T02:10:02;5.55;;;3.20;;
36423;SDS011;22458;45.328;9.514;2022-07-09T02:12:29;4.30;;;3.28;;
36423;SDS011;22458;45.328;9.514;2022-07-09T02:14:55;5.25;;;3.75;;
36423;SDS011;22458;45.328;9.514;2022-07-09T02:17:20;5.93;;;3.92;;
36423;SDS011;22458;45.328;9.514;2022-07-09T02:19:46;4.72;;;2.97;;
36423;SDS011;22458;45.328;9.514;2022-07-09T02:22:12;3.80;;;2.70;;
36423;SDS011;22458;45.328;9.514;2022-07-09T02:24:38;3.90;;;3.40;;
36423;SDS011;22458;45.328;9.514;2022-07-09T02:27:04;7.07;;;3.72;;
36423;SDS011;22458;45.328;9.514;2022-07-09T02:29:30;3.83;;;3.15;;
36423;SDS011;22458;45.328;9.514;2022-07-09T02:31:56;5.88;;;3.70;;
36423;SDS011;22458;45.328;9.514;2022-07-09T02:34:22;4.63;;;3.90;;
36423;SDS011;22458;45.328;9.514;2022-07-09T02:36:49;4.32;;;3.30;;
36423;SDS011;22458;45.328;9.514;2022-07-09T02:39:16;4.45;;;3.53;;
36423;SDS011;22458;45.328;9.514;2022-07-09T02:41:42;3.85;;;3.47;;
36423;SDS011;22458;45.328;9.514;2022-07-09T02:44:08;3.65;;;3.35;;
36423;SDS011;22458;45.328;9.514;2022-07-09T02:46:34;3.40;;;2.90;;
36423;SDS011;22458;45.328;9.514;2022-07-09T02:49:00;3.50;;;3.20;;
36423;SDS011;22458;45.328;9.514;2022-07-09T02:51:25;3.45;;;3.13;;
36423;SDS011;22458;45.328;9.514;2022-07-09T02:53:51;3.83;;;3.42;;
36423;SDS011;22458;45.328;9.514;2022-07-09T02:56:17;4.60;;;3.10;;
36423;SDS011;22458;45.328;9.514;2022-07-09T02:58:43;3.60;;;3.30;;
36423;SDS011;22458;45.328;9.514;2022-07-09T03:01:09;5.18;;;3.20;;
36423;SDS011;22458;45.328;9.514;2022-07-09T03:03:34;9.55;;;3.55;;
36423;SDS011;22458;45.328;9.514;2022-07-09T03:06:01;3.58;;;3.28;;
36423;SDS011;22458;45.328;9.514;2022-07-09T03:08:28;4.68;;;4.20;;
36423;SDS011;22458;45.328;9.514;2022-07-09T03:10:54;4.72;;;3.85;;
36423;SDS011;22458;45.328;9.514;2022-07-09T03:13:19;4.47;;;3.92;;
36423;SDS011;22458;45.328;9.514;2022-07-09T03:15:45;5.80;;;3.80;;
36423;SDS011;22458;45.328;9.514;2022-07-09T03:18:11;4.10;;;3.70;;
36423;SDS011;22458;45.328;9.514;2022-07-09T03:20:37;4.95;;;3.80;;
36423;SDS011;22458;45.328;9.514;2022-07-09T03:23:06;5.60;;;3.90;;
36423;SDS011;22458;45.328;9.514;2022-07-09T03:25:32;4.20;;;3.80;;
36423;SDS011;22458;45.328;9.514;2022-07-09T03:27:59;4.10;;;3.70;;
36423;SDS011;22458;45.328;9.514;2022-07-09T03:30:25;7.05;;;3.80;;
36423;SDS011;22458;45.328;9.514;2022-07-09T03:32:51;5.15;;;3.38;;
36423;SDS011;22458;45.328;9.514;2022-07-09T03:35:16;4.25;;;3.80;;
36423;SDS011;22458;45.328;9.514;2022-07-09T03:37:42;4.55;;;3.80;;
36423;SDS011;22458;45.328;9.514;2022-07-09T03:40:08;7.93;;;4.00;;
36423;SDS011;22458;45.328;9.514;2022-07-09T03:42:34;6.47;;;4.72;;
36423;SDS011;22458;45.328;9.514;2022-07-09T03:45:00;5.10;;;4.05;;
36423;SDS011;22458;45.328;9.514;2022-07-09T03:47:26;5.65;;;3.97;;
36423;SDS011;22458;45.328;9.514;2022-07-09T03:49:51;4.80;;;4.30;;
36423;SDS011;22458;45.328;9.514;2022-07-09T03:52:17;5.75;;;3.70;;
36423;SDS011;22458;45.328;9.514;2022-07-09T03:54:43;5.90;;;3.47;;
36423;SDS011;22458;45.328;9.514;2022-07-09T03:57:09;5.95;;;4.05;;
36423;SDS011;22458;45.328;9.514;2022-07-09T03:59:35;5.22;;;3.85;;
36423;SDS011;22458;45.328;9.514;2022-07-09T04:02:01;4.40;;;3.70;;
36423;SDS011;22458;45.328;9.514;2022-07-09T04:04:28;4.40;;;4.00;;
36423;SDS011;22458;45.328;9.514;2022-07-09T04:06:53;4.00;;;3.60;;
36423;SDS011;22458;45.328;9.514;2022-07-09T04:09:20;4.40;;;4.00;;
36423;SDS011;22458;45.328;9.514;2022-07-09T04:11:47;4.80;;;4.30;;
36423;SDS011;22458;45.328;9.514;2022-07-09T04:14:12;4.85;;;4.35;;
36423;SDS011;22458;45.328;9.514;2022-07-09T04:16:39;4.50;;;3.88;;
36423;SDS011;22458;45.328;9.514;2022-07-09T04:19:05;4.70;;;4.15;;
36423;SDS011;22458;45.328;9.514;2022-07-09T04:21:31;4.97;;;3.72;;
36423;SDS011;22458;45.328;9.514;2022-07-09T04:23:57;4.50;;;3.60;;
36423;SDS011;22458;45.328;9.514;2022-07-09T04:26:23;4.50;;;3.65;;
36423;SDS011;22458;45.328;9.514;2022-07-09T04:28:49;4.82;;;3.95;;
36423;SDS011;22458;45.328;9.514;2022-07-09T04:31:15;4.88;;;4.20;;
36423;SDS011;22458;45.328;9.514;2022-07-09T04:33:41;5.28;;;4.20;;
36423;SDS011;22458;45.328;9.514;2022-07-09T04:36:08;4.70;;;4.25;;
36423;SDS011;22458;45.328;9.514;2022-07-09T04:38:34;4.90;;;4.38;;
36423;SDS011;22458;45.328;9.514;2022-07-09T04:41:00;5.07;;;4.13;;
36423;SDS011;22458;45.328;9.514;2022-07-09T04:43:26;7.40;;;4.22;;
36423;SDS011;22458;45.328;9.514;2022-07-09T04:45:52;4.72;;;4.15;;
36423;SDS011;22458;45.328;9.514;2022-07-09T04:48:17;5.38;;;4.38;;
36423;SDS011;22458;45.328;9.514;2022-07-09T04:50:43;5.95;;;3.97;;
36423;SDS011;22458;45.328;9.514;2022-07-09T04:53:09;5.10;;;4.40;;
36423;SDS011;22458;45.328;9.514;2022-07-09T04:55:35;4.70;;;4.07;;
36423;SDS011;22458;45.328;9.514;2022-07-09T04:58:00;5.68;;;4.20;;
36423;SDS011;22458;45.328;9.514;2022-07-09T05:00:26;4.45;;;4.05;;
36423;SDS011;22458;45.328;9.514;2022-07-09T05:02:52;4.63;;;3.90;;
36423;SDS011;22458;45.328;9.514;2022-07-09T05:05:17;6.35;;;4.13;;
36423;SDS011;22458;45.328;9.514;2022-07-09T05:07:47;4.65;;;4.07;;
36423;SDS011;22458;45.328;9.514;2022-07-09T05:10:13;5.30;;;4.05;;
36423;SDS011;22458;45.328;9.514;2022-07-09T05:12:39;4.20;;;3.75;;
36423;SDS011;22458;45.328;9.514;2022-07-09T05:15:05;4.68;;;3.67;;
36423;SDS011;22458;45.328;9.514;2022-07-09T05:17:34;5.45;;;4.20;;
36423;SDS011;22458;45.328;9.514;2022-07-09T05:20:04;5.68;;;5.07;;
36423;SDS011;22458;45.328;9.514;2022-07-09T05:22:31;5.10;;;4.60;;
36423;SDS011;22458;45.328;9.514;2022-07-09T05:24:58;8.35;;;5.28;;
36423;SDS011;22458;45.328;9.514;2022-07-09T05:27:25;7.93;;;5.00;;
36423;SDS011;22458;45.328;9.514;2022-07-09T05:29:51;7.05;;;5.03;;
36423;SDS011;22458;45.328;9.514;2022-07-09T05:32:17;8.32;;;4.63;;
36423;SDS011;22458;45.328;9.514;2022-07-09T05:34:43;5.63;;;4.50;;
36423;SDS011;22458;45.328;9.514;2022-07-09T05:37:08;5.35;;;4.82;;
36423;SDS011;22458;45.328;9.514;2022-07-09T05:39:34;9.13;;;5.28;;
36423;SDS011;22458;45.328;9.514;2022-07-09T05:42:00;7.00;;;5.32;;
36423;SDS011;22458;45.328;9.514;2022-07-09T05:44:25;5.90;;;5.25;;
36423;SDS011;22458;45.328;9.514;2022-07-09T05:46:51;5.78;;;5.18;;
36423;SDS011;22458;45.328;9.514;2022-07-09T05:49:17;6.13;;;5.50;;
36423;SDS011;22458;45.328;9.514;2022-07-09T05:51:43;6.43;;;5.60;;
36423;SDS011;22458;45.328;9.514;2022-07-09T05:54:09;5.68;;;4.72;;
36423;SDS011;22458;45.328;9.514;2022-07-09T05:56:34;10.82;;;5.50;;
36423;SDS011;22458;45.328;9.514;2022-07-09T05:59:02;9.07;;;5.10;;
36423;SDS011;22458;45.328;9.514;2022-07-09T06:01:28;6.22;;;4.65;;
36423;SDS011;22458;45.328;9.514;2022-07-09T06:03:54;5.15;;;4.50;;
36423;SDS011;22458;45.328;9.514;2022-07-09T06:06:20;6.25;;;5.00;;
36423;SDS011;22458;45.328;9.514;2022-07-09T06:08:46;5.32;;;4.30;;
36423;SDS011;22458;45.328;9.514;2022-07-09T06:11:12;4.57;;;4.18;;
36423;SDS011;22458;45.328;9.514;2022-07-09T06:13:38;6.80;;;4.28;;
36423;SDS011;22458;45.328;9.514;2022-07-09T06:16:04;7.10;;;4.25;;
36423;SDS011;22458;45.328;9.514;2022-07-09T06:18:31;4.65;;;4.13;;
36423;SDS011;22458;45.328;9.514;2022-07-09T06:20:57;5.32;;;4.10;;
36423;SDS011;22458;45.328;9.514;2022-07-09T06:23:22;4.43;;;3.83;;
36423;SDS011;22458;45.328;9.514;2022-07-09T06:25:48;3.95;;;3.50;;
36423;SDS011;22458;45.328;9.514;2022-07-09T06:28:14;4.25;;;3.85;;
36423;SDS011;22458;45.328;9.514;2022-07-09T06:30:40;3.67;;;3.30;;
36423;SDS011;22458;45.328;9.514;2022-07-09T06:33:06;5.47;;;4.07;;
36423;SDS011;22458;45.328;9.514;2022-07-09T06:35:32;4.63;;;3.10;;
36423;SDS011;22458;45.328;9.514;2022-07-09T06:37:58;5.32;;;3.22;;
36423;SDS011;22458;45.328;9.514;2022-07-09T06:40:23;4.30;;;3.25;;
36423;SDS011;22458;45.328;9.514;2022-07-09T06:42:49;7.15;;;3.50;;
36423;SDS011;22458;45.328;9.514;2022-07-09T06:45:32;3.50;;;3.20;;
36423;SDS011;22458;45.328;9.514;2022-07-09T06:47:57;4.53;;;3.53;;
36423;SDS011;22458;45.328;9.514;2022-07-09T06:50:23;3.55;;;3.25;;
36423;SDS011;22458;45.328;9.514;2022-07-09T06:52:49;4.25;;;3.08;;
36423;SDS011;22458;45.328;9.514;2022-07-09T06:55:15;6.57;;;3.13;;
36423;SDS011;22458;45.328;9.514;2022-07-09T06:57:40;3.70;;;3.25;;
36423;SDS011;22458;45.328;9.514;2022-07-09T07:00:06;3.53;;;3.22;;
36423;SDS011;22458;45.328;9.514;2022-07-09T07:02:32;3.70;;;2.95;;
36423;SDS011;22458;45.328;9.514;2022-07-09T07:04:58;6.28;;;3.22;;
36423;SDS011;22458;45.328;9.514;2022-07-09T07:07:24;4.78;;;3.03;;
36423;SDS011;22458;45.328;9.514;2022-07-09T07:09:50;4.50;;;2.78;;
36423;SDS011;22458;45.328;9.514;2022-07-09T07:12:16;3.53;;;2.38;;
36423;SDS011;22458;45.328;9.514;2022-07-09T07:14:42;5.63;;;3.00;;
36423;SDS011;22458;45.328;9.514;2022-07-09T07:17:08;3.95;;;2.80;;
36423;SDS011;22458;45.328;9.514;2022-07-09T07:19:34;3.47;;;2.65;;
36423;SDS011;22458;45.328;9.514;2022-07-09T07:22:00;3.63;;;2.95;;
36423;SDS011;22458;45.328;9.514;2022-07-09T07:24:26;3.08;;;2.78;;
36423;SDS011;22458;45.328;9.514;2022-07-09T07:26:52;3.97;;;2.60;;
36423;SDS011;22458;45.328;9.514;2022-07-09T07:29:17;3.42;;;2.33;;
36423;SDS011;22458;45.328;9.514;2022-07-09T07:31:43;2.58;;;1.27;;
36423;SDS011;22458;45.328;9.514;2022-07-09T07:34:09;4.20;;;1.65;;
36423;SDS011;22458;45.328;9.514;2022-07-09T07:36:35;3.00;;;1.05;;
36423;SDS011;22458;45.328;9.514;2022-07-09T07:39:00;2.58;;;1.30;;
36423;SDS011;22458;45.328;9.514;2022-07-09T07:41:26;2.45;;;1.00;;
36423;SDS011;22458;45.328;9.514;2022-07-09T07:43:52;1.15;;;0.77;;
36423;SDS011;22458;45.328;9.514;2022-07-09T07:46:18;1.98;;;0.75;;
36423;SDS011;22458;45.328;9.514;2022-07-09T07:48:43;0.95;;;0.68;;
36423;SDS011;22458;45.328;9.514;2022-07-09T07:51:09;1.55;;;0.85;;
36423;SDS011;22458;45.328;9.514;2022-07-09T07:53:36;2.88;;;0.93;;
36423;SDS011;22458;45.328;9.514;2022-07-09T07:56:02;2.28;;;1.15;;
36423;SDS011;22458;45.328;9.514;2022-07-09T07:58:29;1.92;;;0.80;;
36423;SDS011;22458;45.328;9.514;2022-07-09T08:00:55;2.05;;;0.60;;
36423;SDS011;22458;45.328;9.514;2022-07-09T08:03:21;1.13;;;0.70;;
36423;SDS011;22458;45.328;9.514;2022-07-09T08:05:47;1.27;;;1.02;;
36423;SDS011;22458;45.328;9.514;2022-07-09T08:08:13;1.90;;;0.60;;
36423;SDS011;22458;45.328;9.514;2022-07-09T08:10:38;2.08;;;0.80;;
36423;SDS011;22458;45.328;9.514;2022-07-09T08:13:04;1.20;;;0.57;;
36423;SDS011;22458;45.328;9.514;2022-07-09T08:15:30;1.17;;;0.93;;
36423;SDS011;22458;45.328;9.514;2022-07-09T08:17:56;1.13;;;0.82;;
36423;SDS011;22458;45.328;9.514;2022-07-09T08:20:21;1.95;;;0.80;;
36423;SDS011;22458;45.328;9.514;2022-07-09T08:22:47;1.77;;;0.63;;
36423;SDS011;22458;45.328;9.514;2022-07-09T08:25:13;1.42;;;0.70;;
36423;SDS011;22458;45.328;9.514;2022-07-09T08:27:39;1.17;;;0.77;;
36423;SDS011;22458;45.328;9.514;2022-07-09T08:30:05;0.80;;;0.70;;
36423;SDS011;22458;45.328;9.514;2022-07-09T08:32:32;1.00;;;0.73;;
36423;SDS011;22458;45.328;9.514;2022-07-09T08:34:58;2.95;;;1.23;;
36423;SDS011;22458;45.328;9.514;2022-07-09T08:37:23;1.40;;;0.85;;
36423;SDS011;22458;45.328;9.514;2022-07-09T08:39:49;1.30;;;0.90;;
36423;SDS011;22458;45.328;9.514;2022-07-09T08:42:18;1.48;;;0.95;;
36423;SDS011;22458;45.328;9.514;2022-07-09T08:44:47;1.05;;;0.80;;
36423;SDS011;22458;45.328;9.514;2022-07-09T08:47:16;1.50;;;0.75;;
36423;SDS011;22458;45.328;9.514;2022-07-09T08:49:41;2.10;;;0.60;;
36423;SDS011;22458;45.328;9.514;2022-07-09T08:52:11;1.83;;;0.90;;
36423;SDS011;22458;45.328;9.514;2022-07-09T08:54:38;3.17;;;1.05;;
36423;SDS011;22458;45.328;9.514;2022-07-09T08:57:07;2.22;;;0.80;;
36423;SDS011;22458;45.328;9.514;2022-07-09T08:59:33;1.02;;;0.70;;
36423;SDS011;22458;45.328;9.514;2022-07-09T09:02:03;1.40;;;0.80;;
36423;SDS011;22458;45.328;9.514;2022-07-09T09:04:30;3.15;;;1.08;;
36423;SDS011;22458;45.328;9.514;2022-07-09T09:06:56;2.35;;;0.75;;
36423;SDS011;22458;45.328;9.514;2022-07-09T09:09:22;2.08;;;0.60;;
36423;SDS011;22458;45.328;9.514;2022-07-09T09:11:48;0.95;;;0.60;;
36423;SDS011;22458;45.328;9.514;2022-07-09T09:14:20;3.00;;;0.65;;
36423;SDS011;22458;45.328;9.514;2022-07-09T09:16:47;1.27;;;0.68;;
36423;SDS011;22458;45.328;9.514;2022-07-09T09:19:13;1.52;;;0.50;;
36423;SDS011;22458;45.328;9.514;2022-07-09T09:21:39;2.72;;;0.55;;
36423;SDS011;22458;45.328;9.514;2022-07-09T09:24:05;2.55;;;0.60;;
36423;SDS011;22458;45.328;9.514;2022-07-09T09:26:31;0.90;;;0.50;;
36423;SDS011;22458;45.328;9.514;2022-07-09T09:29:01;1.52;;;0.73;;
36423;SDS011;22458;45.328;9.514;2022-07-09T09:31:32;1.05;;;0.50;;
36423;SDS011;22458;45.328;9.514;2022-07-09T09:36:35;2.08;;;0.80;;
36423;SDS011;22458;45.328;9.514;2022-07-09T09:39:13;1.33;;;0.82;;
36423;SDS011;22458;45.328;9.514;2022-07-09T09:41:52;0.85;;;0.50;;
36423;SDS011;22458;45.328;9.514;2022-07-09T09:46:54;1.52;;;0.60;;
36423;SDS011;22458;45.328;9.514;2022-07-09T09:49:21;1.17;;;0.40;;
36423;SDS011;22458;45.328;9.514;2022-07-09T09:54:24;1.67;;;0.50;;
36423;SDS011;22458;45.328;9.514;2022-07-09T09:56:50;3.28;;;0.60;;
36423;SDS011;22458;45.328;9.514;2022-07-09T09:59:16;3.45;;;0.55;;
36423;SDS011;22458;45.328;9.514;2022-07-09T10:01:43;3.13;;;0.45;;
36423;SDS011;22458;45.328;9.514;2022-07-09T10:04:10;2.25;;;0.73;;
36423;SDS011;22458;45.328;9.514;2022-07-09T10:06:39;1.13;;;0.95;;
36423;SDS011;22458;45.328;9.514;2022-07-09T10:09:06;1.83;;;0.43;;
36423;SDS011;22458;45.328;9.514;2022-07-09T10:11:46;1.35;;;0.68;;
36423;SDS011;22458;45.328;9.514;2022-07-09T10:19:36;1.65;;;0.40;;
36423;SDS011;22458;45.328;9.514;2022-07-09T10:22:02;1.45;;;0.50;;
36423;SDS011;22458;45.328;9.514;2022-07-09T10:24:29;1.25;;;0.60;;
36423;SDS011;22458;45.328;9.514;2022-07-09T10:29:51;0.95;;;0.60;;
36423;SDS011;22458;45.328;9.514;2022-07-09T10:32:27;1.08;;;0.60;;
36423;SDS011;22458;45.328;9.514;2022-07-09T10:35:01;2.65;;;0.40;;
36423;SDS011;22458;45.328;9.514;2022-07-09T10:37:43;2.70;;;0.50;;
36423;SDS011;22458;45.328;9.514;2022-07-09T10:40:16;4.90;;;2.20;;
36423;SDS011;22458;45.328;9.514;2022-07-09T10:42:44;5.68;;;2.70;;
36423;SDS011;22458;45.328;9.514;2022-07-09T10:47:56;1.00;;;0.50;;
36423;SDS011;22458;45.328;9.514;2022-07-09T10:50:24;1.23;;;0.60;;
36423;SDS011;22458;45.328;9.514;2022-07-09T10:52:51;1.52;;;0.50;;
36423;SDS011;22458;45.328;9.514;2022-07-09T10:55:17;2.30;;;1.00;;
36423;SDS011;22458;45.328;9.514;2022-07-09T10:57:47;1.55;;;0.38;;
36423;SDS011;22458;45.328;9.514;2022-07-09T11:00:14;2.25;;;0.60;;
36423;SDS011;22458;45.328;9.514;2022-07-09T11:02:51;2.85;;;1.05;;
36423;SDS011;22458;45.328;9.514;2022-07-09T11:05:18;4.45;;;1.35;;
36423;SDS011;22458;45.328;9.514;2022-07-09T11:07:53;3.90;;;1.60;;
36423;SDS011;22458;45.328;9.514;2022-07-09T11:10:29;1.58;;;1.23;;
36423;SDS011;22458;45.328;9.514;2022-07-09T11:12:56;5.57;;;3.15;;
36423;SDS011;22458;45.328;9.514;2022-07-09T11:15:25;2.05;;;1.08;;
36423;SDS011;22458;45.328;9.514;2022-07-09T11:18:00;1.77;;;0.60;;
36423;SDS011;22458;45.328;9.514;2022-07-09T11:20:28;2.25;;;1.52;;
36423;SDS011;22458;45.328;9.514;2022-07-09T11:22:55;1.30;;;0.60;;
36423;SDS011;22458;45.328;9.514;2022-07-09T11:25:22;2.28;;;0.95;;
36423;SDS011;22458;45.328;9.514;2022-07-09T11:27:55;2.80;;;0.63;;
36423;SDS011;22458;45.328;9.514;2022-07-09T11:30:25;1.58;;;0.93;;
36423;SDS011;22458;45.328;9.514;2022-07-09T11:32:51;4.45;;;1.70;;
36423;SDS011;22458;45.328;9.514;2022-07-09T11:37:53;2.95;;;0.93;;
36423;SDS011;22458;45.328;9.514;2022-07-09T11:40:24;1.92;;;0.80;;
36423;SDS011;22458;45.328;9.514;2022-07-09T11:42:50;2.33;;;0.82;;
36423;SDS011;22458;45.328;9.514;2022-07-09T11:45:23;1.85;;;0.75;;
36423;SDS011;22458;45.328;9.514;2022-07-09T11:48:08;2.08;;;0.90;;
36423;SDS011;22458;45.328;9.514;2022-07-09T11:50:43;1.80;;;0.80;;
36423;SDS011;22458;45.328;9.514;2022-07-09T11:53:22;1.80;;;0.80;;
36423;SDS011;22458;45.328;9.514;2022-07-09T11:56:00;1.90;;;1.35;;
36423;SDS011;22458;45.328;9.514;2022-07-09T11:58:29;3.00;;;1.38;;
36423;SDS011;22458;45.328;9.514;2022-07-09T12:00:55;2.13;;;1.00;;
36423;SDS011;22458;45.328;9.514;2022-07-09T12:03:24;1.92;;;0.70;;
36423;SDS011;22458;45.328;9.514;2022-07-09T12:05:51;2.20;;;0.70;;
36423;SDS011;22458;45.328;9.514;2022-07-09T12:08:36;2.45;;;0.93;;
36423;SDS011;22458;45.328;9.514;2022-07-09T12:11:02;2.15;;;0.65;;
36423;SDS011;22458;45.328;9.514;2022-07-09T12:13:28;2.28;;;0.75;;
36423;SDS011;22458;45.328;9.514;2022-07-09T12:15:54;1.98;;;0.80;;
36423;SDS011;22458;45.328;9.514;2022-07-09T12:18:20;1.95;;;0.82;;
36423;SDS011;22458;45.328;9.514;2022-07-09T12:20:46;1.52;;;0.77;;
36423;SDS011;22458;45.328;9.514;2022-07-09T12:23:12;3.15;;;0.80;;
36423;SDS011;22458;45.328;9.514;2022-07-09T12:25:38;0.93;;;0.68;;
36423;SDS011;22458;45.328;9.514;2022-07-09T12:28:05;1.50;;;0.80;;
36423;SDS011;22458;45.328;9.514;2022-07-09T12:30:30;2.00;;;0.50;;
36423;SDS011;22458;45.328;9.514;2022-07-09T12:32:56;3.70;;;0.77;;
36423;SDS011;22458;45.328;9.514;2022-07-09T12:37:51;1.10;;;0.60;;
36423;SDS011;22458;45.328;9.514;2022-07-09T12:40:17;3.10;;;0.98;;
36423;SDS011;22458;45.328;9.514;2022-07-09T12:42:43;0.98;;;0.63;;
36423;SDS011;22458;45.328;9.514;2022-07-09T12:45:09;1.30;;;0.60;;
36423;SDS011;22458;45.328;9.514;2022-07-09T12:47:37;1.38;;;0.60;;
36423;SDS011;22458;45.328;9.514;2022-07-09T12:50:04;3.35;;;0.75;;
36423;SDS011;22458;45.328;9.514;2022-07-09T12:52:31;1.50;;;0.80;;
36423;SDS011;22458;45.328;9.514;2022-07-09T12:55:00;1.40;;;0.88;;
36423;SDS011;22458;45.328;9.514;2022-07-09T12:57:27;1.42;;;0.75;;
36423;SDS011;22458;45.328;9.514;2022-07-09T12:59:52;1.52;;;0.70;;
36423;SDS011;22458;45.328;9.514;2022-07-09T13:02:18;1.52;;;0.73;;
36423;SDS011;22458;45.328;9.514;2022-07-09T13:04:45;1.10;;;0.68;;
36423;SDS011;22458;45.328;9.514;2022-07-09T13:07:10;1.40;;;0.60;;
36423;SDS011;22458;45.328;9.514;2022-07-09T13:09:36;1.20;;;0.60;;
36423;SDS011;22458;45.328;9.514;2022-07-09T13:12:02;2.25;;;0.98;;
36423;SDS011;22458;45.328;9.514;2022-07-09T13:14:28;2.95;;;0.90;;
36423;SDS011;22458;45.328;9.514;2022-07-09T13:16:54;1.92;;;0.65;;
36423;SDS011;22458;45.328;9.514;2022-07-09T13:19:20;1.23;;;0.55;;
36423;SDS011;22458;45.328;9.514;2022-07-09T13:21:46;3.83;;;0.65;;
36423;SDS011;22458;45.328;9.514;2022-07-09T13:24:12;4.30;;;1.10;;
36423;SDS011;22458;45.328;9.514;2022-07-09T13:26:38;1.10;;;0.60;;
36423;SDS011;22458;45.328;9.514;2022-07-09T13:29:05;2.47;;;0.73;;
36423;SDS011;22458;45.328;9.514;2022-07-09T13:31:31;2.95;;;1.00;;
36423;SDS011;22458;45.328;9.514;2022-07-09T13:33:56;2.40;;;0.70;;
36423;SDS011;22458;45.328;9.514;2022-07-09T13:36:22;5.20;;;2.30;;
36423;SDS011;22458;45.328;9.514;2022-07-09T13:38:48;2.42;;;1.20;;
36423;SDS011;22458;45.328;9.514;2022-07-09T13:41:13;1.50;;;1.20;;
36423;SDS011;22458;45.328;9.514;2022-07-09T13:43:42;2.50;;;0.77;;
36423;SDS011;22458;45.328;9.514;2022-07-09T13:46:08;1.80;;;0.88;;
36423;SDS011;22458;45.328;9.514;2022-07-09T13:48:34;4.35;;;2.42;;
36423;SDS011;22458;45.328;9.514;2022-07-09T13:51:00;2.80;;;2.08;;
36423;SDS011;22458;45.328;9.514;2022-07-09T13:53:26;3.17;;;1.85;;
36423;SDS011;22458;45.328;9.514;2022-07-09T13:55:53;1.92;;;0.95;;
36423;SDS011;22458;45.328;9.514;2022-07-09T13:58:19;2.45;;;1.77;;
36423;SDS011;22458;45.328;9.514;2022-07-09T14:00:45;3.50;;;1.08;;
36423;SDS011;22458;45.328;9.514;2022-07-09T14:03:11;3.83;;;1.77;;
36423;SDS011;22458;45.328;9.514;2022-07-09T14:05:36;3.83;;;2.00;;
36423;SDS011;22458;45.328;9.514;2022-07-09T14:08:03;4.07;;;2.40;;
36423;SDS011;22458;45.328;9.514;2022-07-09T14:10:30;1.77;;;1.20;;
36423;SDS011;22458;45.328;9.514;2022-07-09T14:12:57;2.33;;;0.90;;
36423;SDS011;22458;45.328;9.514;2022-07-09T14:15:23;1.85;;;1.10;;
36423;SDS011;22458;45.328;9.514;2022-07-09T14:17:49;2.45;;;1.63;;
36423;SDS011;22458;45.328;9.514;2022-07-09T14:20:14;1.75;;;0.85;;
36423;SDS011;22458;45.328;9.514;2022-07-09T14:22:40;1.92;;;1.23;;
36423;SDS011;22458;45.328;9.514;2022-07-09T14:25:06;1.98;;;0.70;;
36423;SDS011;22458;45.328;9.514;2022-07-09T14:27:32;2.75;;;2.13;;
36423;SDS011;22458;45.328;9.514;2022-07-09T14:29:58;2.15;;;1.73;;
36423;SDS011;22458;45.328;9.514;2022-07-09T14:32:24;2.85;;;2.03;;
36423;SDS011;22458;45.328;9.514;2022-07-09T14:34:50;1.45;;;0.95;;
36423;SDS011;22458;45.328;9.514;2022-07-09T14:37:15;3.10;;;1.27;;
36423;SDS011;22458;45.328;9.514;2022-07-09T14:39:41;2.22;;;1.40;;
36423;SDS011;22458;45.328;9.514;2022-07-09T14:42:07;1.80;;;0.85;;
36423;SDS011;22458;45.328;9.514;2022-07-09T14:44:33;1.98;;;0.90;;
36423;SDS011;22458;45.328;9.514;2022-07-09T14:46:59;1.38;;;0.70;;
36423;SDS011;22458;45.328;9.514;2022-07-09T14:49:25;2.20;;;1.50;;
36423;SDS011;22458;45.328;9.514;2022-07-09T14:51:52;2.03;;;1.52;;
36423;SDS011;22458;45.328;9.514;2022-07-09T14:54:18;4.47;;;2.72;;
36423;SDS011;22458;45.328;9.514;2022-07-09T14:56:44;2.80;;;2.13;;
36423;SDS011;22458;45.328;9.514;2022-07-09T14:59:10;1.20;;;0.73;;
36423;SDS011;22458;45.328;9.514;2022-07-09T15:01:37;1.65;;;1.10;;
36423;SDS011;22458;45.328;9.514;2022-07-09T15:04:04;5.40;;;2.88;;
36423;SDS011;22458;45.328;9.514;2022-07-09T15:06:29;2.85;;;1.65;;
36423;SDS011;22458;45.328;9.514;2022-07-09T15:08:55;5.43;;;3.50;;